createdAt,value
2023-01-04T00:01:35.284Z,6.60
2023-01-04T00:04:03.630Z,6.80
2023-01-04T00:06:32.058Z,6.70
2023-01-04T00:09:00.303Z,6.60
2023-01-04T00:11:28.940Z,6.60
2023-01-04T00:13:59.566Z,6.70
2023-01-04T00:16:29.740Z,6.60
2023-01-04T00:18:58.549Z,6.60
2023-01-04T00:21:28.465Z,6.50
2023-01-04T00:23:59.309Z,6.40
2023-01-04T00:26:29.681Z,6.40
2023-01-04T00:29:01.027Z,6.30
2023-01-04T00:31:30.383Z,6.50
2023-01-04T00:34:00.125Z,6.50
2023-01-04T00:36:28.861Z,6.50
2023-01-04T00:39:12.472Z,6.60
2023-01-04T00:41:58.915Z,6.50
2023-01-04T00:44:31.137Z,6.30
2023-01-04T00:46:59.903Z,6.30
2023-01-04T00:49:28.813Z,6.20
2023-01-04T00:51:57.406Z,6.20
2023-01-04T00:54:26.163Z,6.20
2023-01-04T00:56:54.675Z,6.20
2023-01-04T00:59:23.503Z,6.20
2023-01-04T01:01:53.321Z,6.40
2023-01-04T01:04:23.239Z,6.30
2023-01-04T01:06:52.882Z,6.10
2023-01-04T01:09:22.919Z,6.20
2023-01-04T01:11:52.316Z,6.30
2023-01-04T01:14:23.370Z,6.20
2023-01-04T01:16:57.019Z,6.40
2023-01-04T01:19:27.483Z,6.20
2023-01-04T01:21:57.311Z,6.40
2023-01-04T01:24:25.683Z,6.50
2023-01-04T01:26:54.698Z,6.50
2023-01-04T01:29:23.041Z,6.40
2023-01-04T01:31:52.552Z,6.30
2023-01-04T01:34:20.913Z,6.30
2023-01-04T01:36:49.124Z,6.30
2023-01-04T01:39:17.231Z,6.30
2023-01-04T01:41:45.421Z,6.40
2023-01-04T01:44:50.580Z,6.30
2023-01-04T01:47:22.711Z,6.30
2023-01-04T01:49:54.211Z,6.30
2023-01-04T01:52:25.486Z,6.30
2023-01-04T01:54:58.315Z,6.10
2023-01-04T01:57:30.050Z,6.10
2023-01-04T02:00:02.190Z,6.20
2023-01-04T02:02:31.915Z,6.10
2023-01-04T02:05:01.571Z,6.00
2023-01-04T02:07:30.246Z,6.10
2023-01-04T02:09:59.424Z,6.00
2023-01-04T02:12:27.589Z,6.20
2023-01-04T02:14:55.649Z,6.10
2023-01-04T02:17:35.428Z,6.10
2023-01-04T02:20:35.963Z,6.00
2023-01-04T02:23:38.758Z,6.00
2023-01-04T02:26:37.304Z,5.90
2023-01-04T02:29:25.541Z,6.00
2023-01-04T02:31:57.932Z,6.10
2023-01-04T02:34:37.372Z,6.10
2023-01-04T02:37:11.711Z,6.10
2023-01-04T02:39:48.443Z,6.20
2023-01-04T02:42:22.960Z,6.30
2023-01-04T02:44:53.892Z,6.10
2023-01-04T02:47:45.599Z,5.90
2023-01-04T02:50:36.061Z,6.10
2023-01-04T02:53:08.596Z,6.00
2023-01-04T02:55:49.202Z,6.00
2023-01-04T02:58:33.352Z,5.80
2023-01-04T03:01:26.513Z,6.00
2023-01-04T03:04:25.367Z,6.10
2023-01-04T03:07:00.898Z,5.90
2023-01-04T03:09:34.435Z,6.20
2023-01-04T03:12:25.785Z,6.20
2023-01-04T03:15:00.459Z,6.10
2023-01-04T03:17:34.563Z,6.00
2023-01-04T03:20:04.717Z,6.00
2023-01-04T03:22:55.160Z,6.00
2023-01-04T03:25:44.752Z,6.10
2023-01-04T03:28:32.698Z,6.20
2023-01-04T03:31:36.817Z,6.20
2023-01-04T03:34:22.799Z,6.20
2023-01-04T03:37:04.858Z,6.20
2023-01-04T03:40:04.820Z,6.20
2023-01-04T03:43:00.568Z,6.20
2023-01-04T03:45:49.935Z,6.10
2023-01-04T03:48:31.425Z,6.20
2023-01-04T03:51:09.925Z,6.20
2023-01-04T03:53:46.753Z,6.20
2023-01-04T03:56:16.753Z,6.30
2023-01-04T03:58:46.301Z,6.10
2023-01-04T04:01:14.950Z,6.30
2023-01-04T04:04:00.392Z,6.20
2023-01-04T04:06:45.951Z,6.20
2023-01-04T04:09:15.371Z,6.20
2023-01-04T04:11:43.547Z,6.20
2023-01-04T04:14:11.788Z,6.20
2023-01-04T04:16:40.253Z,6.30
2023-01-04T04:19:09.154Z,6.30
2023-01-04T04:21:37.905Z,6.30
2023-01-04T04:24:07.272Z,6.40
2023-01-04T04:26:36.858Z,6.20
2023-01-04T04:29:04.999Z,6.40
2023-01-04T04:31:33.169Z,6.30
2023-01-04T04:34:01.267Z,6.30
2023-01-04T04:36:29.392Z,6.50
2023-01-04T04:38:57.610Z,6.50
2023-01-04T04:41:39.688Z,6.60
2023-01-04T04:44:10.235Z,6.70
2023-01-04T04:46:38.535Z,6.80
2023-01-04T04:49:07.675Z,6.80
2023-01-04T04:51:36.531Z,6.90
2023-01-04T04:54:05.122Z,6.80
2023-01-04T04:56:33.330Z,7.00
2023-01-04T04:59:01.653Z,6.80
2023-01-04T05:01:31.706Z,6.90
2023-01-04T05:03:59.998Z,6.90
2023-01-04T05:06:29.595Z,6.80
2023-01-04T05:08:57.709Z,6.90
2023-01-04T05:11:39.690Z,7.00
2023-01-04T05:14:07.766Z,7.00
2023-01-04T05:16:37.562Z,7.00
2023-01-04T05:19:05.823Z,7.00
2023-01-04T05:21:33.911Z,6.90
2023-01-04T05:24:02.050Z,6.90
2023-01-04T05:26:30.187Z,7.00
2023-01-04T05:28:58.310Z,6.90
2023-01-04T05:31:26.090Z,6.90
2023-01-04T05:33:55.536Z,7.00
2023-01-04T05:36:23.633Z,6.90
2023-01-04T05:38:51.783Z,7.00
2023-01-04T05:41:37.249Z,7.10
2023-01-04T05:44:05.443Z,7.10
2023-01-04T05:46:33.651Z,7.10
2023-01-04T05:49:03.365Z,7.00
2023-01-04T05:51:31.577Z,7.00
2023-01-04T05:53:59.815Z,7.00
2023-01-04T05:56:28.012Z,7.00
2023-01-04T05:58:56.140Z,7.10
2023-01-04T06:01:24.399Z,7.00
2023-01-04T06:03:52.637Z,7.10
2023-01-04T06:06:22.184Z,7.10
2023-01-04T06:08:50.295Z,7.10
2023-01-04T06:11:22.638Z,7.20
2023-01-04T06:13:53.827Z,7.20
2023-01-04T06:16:22.077Z,7.20
2023-01-04T06:18:52.149Z,7.10
2023-01-04T06:21:21.795Z,7.10
2023-01-04T06:23:49.892Z,7.10
2023-01-04T06:26:18.059Z,7.20
2023-01-04T06:28:46.324Z,7.10
2023-01-04T06:31:14.874Z,7.20
2023-01-04T06:33:43.170Z,7.20
2023-01-04T06:36:19.439Z,7.30
2023-01-04T06:38:50.522Z,7.30
2023-01-04T06:41:19.170Z,7.10
2023-01-04T06:43:47.471Z,7.20
2023-01-04T06:46:15.841Z,7.20
2023-01-04T06:48:44.147Z,7.20
2023-01-04T06:51:12.236Z,7.10
2023-01-04T06:53:40.341Z,7.10
2023-01-04T06:56:10.227Z,7.20
2023-01-04T06:58:38.364Z,7.20
2023-01-04T07:01:07.198Z,7.10
2023-01-04T07:03:35.733Z,7.20
2023-01-04T07:06:06.275Z,7.30
2023-01-04T07:08:35.041Z,7.10
2023-01-04T07:11:03.620Z,7.20
2023-01-04T07:13:33.240Z,7.20
2023-01-04T07:16:01.446Z,7.20
2023-01-04T07:18:29.600Z,7.20
2023-01-04T07:20:57.786Z,7.30
2023-01-04T07:23:26.010Z,7.40
2023-01-04T07:25:54.140Z,7.30
2023-01-04T07:28:36.255Z,7.20
2023-01-04T07:31:09.832Z,7.30
2023-01-04T07:33:38.248Z,7.30
2023-01-04T07:36:07.963Z,7.40
2023-01-04T07:38:36.815Z,7.40
2023-01-04T07:41:05.424Z,7.40
2023-01-04T07:43:33.604Z,7.30
2023-01-04T07:46:01.850Z,7.40
2023-01-04T07:48:31.489Z,7.50
2023-01-04T07:50:59.621Z,7.40
2023-01-04T07:53:27.792Z,7.50
2023-01-04T07:55:59.653Z,7.40
2023-01-04T07:58:28.536Z,7.20
2023-01-04T08:00:57.806Z,7.30
2023-01-04T08:03:25.952Z,7.40
2023-01-04T08:05:55.533Z,7.40
2023-01-04T08:08:23.652Z,7.40
2023-01-04T08:10:51.898Z,7.40
2023-01-04T08:13:20.041Z,7.40
2023-01-04T08:15:53.872Z,7.30
2023-01-04T08:18:22.161Z,7.30
2023-01-04T08:20:54.948Z,7.30
2023-01-04T08:23:27.924Z,7.40
2023-01-04T08:25:56.000Z,7.40
2023-01-04T08:28:24.097Z,7.40
2023-01-04T08:30:52.326Z,7.50
2023-01-04T08:33:20.452Z,7.40
2023-01-04T08:35:48.518Z,7.50
2023-01-04T08:38:57.630Z,7.50
2023-01-04T08:41:23.500Z,7.50
2023-01-04T08:43:54.976Z,7.40
2023-01-04T08:46:23.090Z,7.40
2023-01-04T08:48:52.799Z,7.50
2023-01-04T08:51:20.883Z,7.50
2023-01-04T08:53:48.923Z,7.50
2023-01-04T08:56:19.336Z,7.50
2023-01-04T08:58:47.437Z,7.50
2023-01-04T09:01:15.614Z,7.40
2023-01-04T09:03:43.756Z,7.40
2023-01-04T09:06:13.606Z,7.40
2023-01-04T09:08:43.219Z,7.40
2023-01-04T09:11:13.473Z,7.60
2023-01-04T09:13:43.578Z,7.50
2023-01-04T09:16:14.626Z,7.50
2023-01-04T09:18:42.809Z,7.50
2023-01-04T09:21:13.253Z,7.40
2023-01-04T09:23:42.668Z,7.50
2023-01-04T09:26:12.729Z,7.50
2023-01-04T09:28:42.171Z,7.50
2023-01-04T09:31:12.201Z,7.50
2023-01-04T09:34:12.805Z,7.60
2023-01-04T09:36:28.804Z,7.60
2023-01-04T09:38:57.186Z,7.70
2023-01-04T09:41:28.160Z,7.60
2023-01-04T09:44:02.070Z,7.70
2023-01-04T09:46:34.717Z,7.70
2023-01-04T09:49:15.465Z,7.80
2023-01-04T09:51:49.604Z,7.90
2023-01-04T09:54:22.908Z,7.90
2023-01-04T09:56:53.583Z,7.90
2023-01-04T09:59:30.297Z,8.00
2023-01-04T10:02:02.633Z,8.00
2023-01-04T10:04:42.109Z,8.10
2023-01-04T10:07:19.265Z,8.00
2023-01-04T10:09:47.465Z,8.00
2023-01-04T10:12:28.226Z,8.10
2023-01-04T10:15:08.816Z,8.10
2023-01-04T10:23:53.589Z,8.20
2023-01-04T10:26:25.631Z,8.10
2023-01-04T10:29:10.811Z,8.10
2023-01-04T10:31:45.756Z,8.10
2023-01-04T10:34:23.396Z,8.20
2023-01-04T10:36:55.705Z,8.20
2023-01-04T10:39:32.324Z,8.20
2023-01-04T10:42:07.971Z,8.30
2023-01-04T10:44:45.424Z,8.30
2023-01-04T10:47:23.343Z,8.30
2023-01-04T10:49:56.152Z,8.30
2023-01-04T10:52:29.925Z,8.30
2023-01-04T10:55:04.748Z,8.30
2023-01-04T10:57:38.215Z,8.40
2023-01-04T11:00:12.156Z,8.40
2023-01-04T11:02:49.245Z,8.40
2023-01-04T11:05:22.972Z,8.30
2023-01-04T11:07:56.864Z,8.30
2023-01-04T11:10:29.862Z,8.40
2023-01-04T11:12:58.172Z,8.40
2023-01-04T11:15:26.413Z,8.40
2023-01-04T11:17:56.127Z,8.40
2023-01-04T11:20:27.034Z,8.40
2023-01-04T11:23:02.419Z,8.50
2023-01-04T11:25:36.893Z,8.50
2023-01-04T11:28:16.003Z,8.60
2023-01-04T11:30:55.418Z,8.60
2023-01-04T11:33:25.956Z,8.50
2023-01-04T11:35:56.983Z,8.60
2023-01-04T11:38:27.688Z,8.60
2023-01-04T11:40:59.350Z,8.70
2023-01-04T11:43:29.605Z,8.80
2023-01-04T11:46:03.707Z,8.70
2023-01-04T11:48:43.840Z,8.70
2023-01-04T11:51:21.078Z,8.70
2023-01-04T11:53:59.277Z,8.70
2023-01-04T11:56:29.368Z,8.70
2023-01-04T11:59:20.719Z,8.70
2023-01-04T12:02:11.343Z,8.70
2023-01-04T12:04:40.998Z,8.70
2023-01-04T12:07:27.693Z,8.60
2023-01-04T12:09:56.141Z,8.70
2023-01-04T12:12:29.823Z,8.80
2023-01-04T12:15:01.023Z,8.80
2023-01-04T12:17:41.328Z,8.80
2023-01-04T12:20:19.988Z,8.90
2023-01-04T12:22:48.405Z,8.90
2023-01-04T12:25:30.029Z,8.80
2023-01-04T12:27:58.318Z,8.90
2023-01-04T12:30:41.979Z,9.00
2023-01-04T12:33:38.763Z,9.10
2023-01-04T12:36:09.745Z,9.10
2023-01-04T12:39:14.338Z,9.20
2023-01-04T12:42:22.236Z,9.20
2023-01-04T12:45:17.844Z,9.30
2023-01-04T12:48:10.152Z,9.20
2023-01-04T12:51:32.838Z,9.30
2023-01-04T12:54:05.246Z,9.20
2023-01-04T12:57:23.821Z,9.30
2023-01-04T12:59:58.230Z,9.30
2023-01-04T13:02:28.744Z,9.30
2023-01-04T13:07:49.256Z,9.40
2023-01-04T13:10:32.479Z,9.40
2023-01-04T13:13:24.170Z,9.40
2023-01-04T13:16:03.636Z,9.40
2023-01-04T13:18:38.791Z,9.50
2023-01-04T13:21:13.912Z,9.50
2023-01-04T13:23:48.035Z,9.50
2023-01-04T13:26:37.161Z,9.50
2023-01-04T13:29:20.496Z,9.50
2023-01-04T13:31:57.749Z,9.60
2023-01-04T13:34:29.058Z,9.60
2023-01-04T13:37:05.621Z,9.60
2023-01-04T13:39:33.858Z,9.60
2023-01-04T13:42:04.283Z,9.60
2023-01-04T13:45:21.364Z,9.60
2023-01-04T13:47:52.906Z,9.60
2023-01-04T13:50:32.340Z,9.60
2023-01-04T13:53:08.997Z,9.60
2023-01-04T13:55:39.332Z,9.70
2023-01-04T13:58:18.646Z,9.70
2023-01-04T14:00:50.666Z,9.60
2023-01-04T14:03:28.441Z,9.60
2023-01-04T14:06:11.967Z,9.70
2023-01-04T14:08:42.498Z,9.60
2023-01-04T14:11:40.960Z,9.70
2023-01-04T14:14:25.152Z,9.70
2023-01-04T14:17:05.760Z,9.70
2023-01-04T14:19:45.295Z,9.70
2023-01-04T14:22:41.437Z,9.70
2023-01-04T14:25:56.152Z,9.60
2023-01-04T14:28:41.612Z,9.60
2023-01-04T14:31:23.170Z,9.70
2023-01-04T14:33:53.495Z,9.80
2023-01-04T14:36:26.628Z,9.70
2023-01-04T14:39:09.436Z,9.70
2023-01-04T14:41:39.960Z,9.70
2023-01-04T14:44:12.921Z,9.70
2023-01-04T14:46:43.773Z,9.80
2023-01-04T14:49:11.993Z,9.80
2023-01-04T14:51:44.143Z,9.80
2023-01-04T14:54:18.855Z,9.80
2023-01-04T14:56:48.817Z,9.80
2023-01-04T14:59:16.851Z,9.80
2023-01-04T15:01:46.326Z,9.70
2023-01-04T15:04:14.614Z,9.70
2023-01-04T15:06:49.796Z,9.70
2023-01-04T15:09:17.873Z,9.70
2023-01-04T15:11:46.123Z,9.70
2023-01-04T15:14:14.663Z,9.70
2023-01-04T15:16:42.917Z,9.70
2023-01-04T15:19:12.622Z,9.70
2023-01-04T15:21:41.894Z,9.80
2023-01-04T15:24:11.092Z,9.70
2023-01-04T15:26:40.084Z,9.80
2023-01-04T15:29:08.743Z,9.70
2023-01-04T15:31:40.354Z,9.80
2023-01-04T15:34:10.379Z,9.80
2023-01-04T15:36:41.247Z,9.80
2023-01-04T15:39:12.821Z,9.70
2023-01-04T15:42:07.179Z,9.80
2023-01-04T15:44:35.303Z,9.70
2023-01-04T15:47:03.583Z,9.80
2023-01-04T15:49:31.834Z,9.80
2023-01-04T15:52:01.246Z,9.80
2023-01-04T15:54:29.800Z,9.70
2023-01-04T15:56:58.149Z,9.80
2023-01-04T15:59:26.747Z,9.70
2023-01-04T16:01:54.859Z,9.70
2023-01-04T16:04:23.256Z,9.70
2023-01-04T16:06:51.403Z,9.70
2023-01-04T16:09:21.335Z,9.60
2023-01-04T16:12:07.206Z,9.70
2023-01-04T16:14:35.579Z,9.70
2023-01-04T16:17:03.644Z,9.70
2023-01-04T16:19:34.142Z,9.80
2023-01-04T16:22:02.375Z,9.80
2023-01-04T16:27:20.437Z,9.80
2023-01-04T16:29:50.463Z,9.80
2023-01-04T16:32:19.223Z,9.90
2023-01-04T16:34:47.590Z,9.90
2023-01-04T16:37:15.806Z,9.90
2023-01-04T16:42:33.917Z,9.80
2023-01-04T16:45:02.110Z,9.90
2023-01-04T16:47:30.218Z,9.90
2023-01-04T16:49:58.423Z,9.90
2023-01-04T16:52:27.613Z,9.90
2023-01-04T16:54:57.498Z,9.90
2023-01-04T16:57:25.776Z,10.00
2023-01-04T16:59:54.218Z,9.90
2023-01-04T17:02:23.165Z,9.90
2023-01-04T17:04:55.523Z,10.00
2023-01-04T17:07:23.846Z,10.00
2023-01-04T17:09:51.998Z,10.00
2023-01-04T17:17:59.746Z,10.00
2023-01-04T17:20:28.032Z,10.00
2023-01-04T17:22:56.285Z,10.00
2023-01-04T17:25:25.645Z,10.00
2023-01-04T17:27:55.402Z,9.90
2023-01-04T17:30:24.343Z,10.00
2023-01-04T17:32:53.269Z,10.00
2023-01-04T17:35:21.920Z,10.00
2023-01-04T17:37:50.735Z,9.90
2023-01-04T17:40:23.280Z,10.00
2023-01-04T17:42:52.714Z,10.00
2023-01-04T17:45:23.643Z,10.00
2023-01-04T17:47:52.419Z,10.00
2023-01-04T17:50:20.742Z,10.00
2023-01-04T17:52:50.672Z,10.10
2023-01-04T17:55:19.565Z,10.10
2023-01-04T17:57:47.975Z,10.00
2023-01-04T18:00:16.696Z,10.10
2023-01-04T18:02:46.278Z,10.10
2023-01-04T18:05:14.541Z,10.00
2023-01-04T18:07:42.650Z,10.00
2023-01-04T18:10:21.477Z,10.00
2023-01-04T18:13:03.160Z,10.00
2023-01-04T18:15:31.230Z,10.00
2023-01-04T18:18:00.667Z,9.90
2023-01-04T18:20:28.767Z,9.80
2023-01-04T18:22:56.805Z,9.90
2023-01-04T18:25:25.122Z,9.80
2023-01-04T18:27:54.041Z,9.70
2023-01-04T18:30:22.042Z,9.90
2023-01-04T18:32:50.081Z,9.80
2023-01-04T18:35:19.498Z,9.80
2023-01-04T18:37:47.635Z,9.90
2023-01-04T18:40:15.756Z,9.90
2023-01-04T18:42:47.943Z,9.90
2023-01-04T18:45:16.454Z,9.80
2023-01-04T18:47:47.441Z,9.90
2023-01-04T18:50:15.998Z,9.80
2023-01-04T18:52:45.789Z,9.80
2023-01-04T18:55:14.020Z,9.80
2023-01-04T18:57:42.346Z,9.90
2023-01-04T19:00:11.981Z,9.80
2023-01-04T19:02:40.354Z,9.90
2023-01-04T19:05:09.267Z,9.90
2023-01-04T19:07:39.908Z,9.90
2023-01-04T19:10:10.439Z,9.90
2023-01-04T19:12:38.923Z,10.00
2023-01-04T19:15:08.680Z,9.90
2023-01-04T19:17:37.334Z,9.90
2023-01-04T19:20:06.187Z,9.80
2023-01-04T19:22:34.909Z,9.80
2023-01-04T19:25:03.052Z,9.80
2023-01-04T19:27:32.569Z,9.90
2023-01-04T19:30:01.065Z,9.90
2023-01-04T19:32:33.427Z,9.90
2023-01-04T19:35:01.924Z,10.00
2023-01-04T19:37:30.449Z,9.80
2023-01-04T19:39:58.559Z,9.90
2023-01-04T19:42:26.630Z,9.90
2023-01-04T19:44:56.217Z,9.90
2023-01-04T19:47:24.381Z,9.90
2023-01-04T19:49:52.606Z,9.90
2023-01-04T19:52:20.866Z,9.90
2023-01-04T19:54:49.122Z,9.90
2023-01-04T19:57:17.341Z,9.80
2023-01-04T19:59:45.526Z,9.80
2023-01-04T20:02:15.303Z,9.90
2023-01-04T20:04:43.823Z,9.90
2023-01-04T20:07:11.956Z,9.80
2023-01-04T20:09:40.153Z,9.80
2023-01-04T20:12:08.563Z,9.80
2023-01-04T20:14:36.782Z,9.70
2023-01-04T20:17:04.902Z,9.70
2023-01-04T20:19:34.383Z,9.60
2023-01-04T20:22:02.400Z,9.70
2023-01-04T20:24:30.617Z,9.80
2023-01-04T20:26:58.710Z,9.70
2023-01-04T20:29:26.730Z,9.60
2023-01-04T20:31:55.947Z,9.60
2023-01-04T20:34:24.094Z,9.70
2023-01-04T20:36:53.784Z,9.70
2023-01-04T20:39:22.232Z,9.70
2023-01-04T20:42:07.782Z,9.80
2023-01-04T20:44:36.017Z,9.70
2023-01-04T20:47:04.657Z,9.70
2023-01-04T20:49:32.820Z,9.70
2023-01-04T20:52:02.303Z,9.60
2023-01-04T20:54:30.368Z,9.60
2023-01-04T20:56:58.376Z,9.50
2023-01-04T20:59:26.510Z,9.50
2023-01-04T21:01:54.679Z,9.60
2023-01-04T21:04:22.923Z,9.60
2023-01-04T21:06:50.990Z,9.60
2023-01-04T21:09:20.421Z,9.60
2023-01-04T21:11:48.704Z,9.70
2023-01-04T21:14:16.831Z,9.70
2023-01-04T21:16:45.383Z,9.80
2023-01-04T21:19:13.856Z,9.80
2023-01-04T21:21:41.972Z,9.80
2023-01-04T21:24:10.121Z,9.80
2023-01-04T21:26:39.592Z,9.80
2023-01-04T21:29:07.626Z,9.70
2023-01-04T21:31:35.853Z,9.70
2023-01-04T21:34:09.344Z,9.70
2023-01-04T21:36:40.979Z,9.70
2023-01-04T21:39:09.087Z,9.80
2023-01-04T21:41:38.158Z,9.80
2023-01-04T21:44:09.924Z,9.80
2023-01-04T21:46:38.067Z,9.80
2023-01-04T21:49:06.379Z,9.80
2023-01-04T21:51:35.136Z,9.80
2023-01-04T21:54:03.388Z,9.80
2023-01-04T21:56:31.986Z,9.80
2023-01-04T21:59:00.037Z,9.90
2023-01-04T22:01:34.947Z,9.90
2023-01-04T22:04:04.439Z,9.90
2023-01-04T22:06:37.253Z,10.00
2023-01-04T22:09:05.709Z,9.90
2023-01-04T22:11:33.827Z,9.90
2023-01-04T22:14:01.885Z,10.00
2023-01-04T22:16:31.401Z,10.00
2023-01-04T22:18:59.586Z,10.00
2023-01-04T22:21:27.717Z,10.10
2023-01-04T22:23:55.827Z,10.00
2023-01-04T22:26:24.241Z,9.90
2023-01-04T22:28:52.327Z,10.00
2023-01-04T22:31:20.393Z,9.90
2023-01-04T22:33:49.787Z,9.90
2023-01-04T22:36:22.733Z,9.90
2023-01-04T22:38:52.693Z,9.80
2023-01-04T22:41:22.218Z,9.90
2023-01-04T22:43:55.567Z,9.90
2023-01-04T22:46:24.287Z,9.90
2023-01-04T22:48:54.093Z,9.90
2023-01-04T22:51:23.212Z,10.00
2023-01-04T22:53:54.395Z,9.90
2023-01-04T22:56:23.362Z,9.90
2023-01-04T22:58:54.974Z,9.90
2023-01-04T23:01:24.790Z,9.80
2023-01-04T23:03:55.185Z,9.80
2023-01-04T23:06:24.717Z,9.80
2023-01-04T23:08:57.332Z,9.80
2023-01-04T23:11:26.578Z,9.80
2023-01-04T23:13:54.971Z,9.80
2023-01-04T23:16:29.629Z,9.80
2023-01-04T23:19:01.985Z,9.80
2023-01-04T23:21:30.758Z,9.70
2023-01-04T23:24:00.258Z,9.70
2023-01-04T23:26:30.829Z,9.80
2023-01-04T23:28:59.279Z,9.80
2023-01-04T23:31:29.109Z,9.90
2023-01-04T23:33:59.605Z,9.90
2023-01-04T23:36:31.873Z,9.90
2023-01-04T23:39:01.976Z,9.90
2023-01-04T23:41:44.180Z,9.90
2023-01-04T23:44:14.531Z,9.90
2023-01-04T23:46:43.249Z,10.00
2023-01-04T23:49:11.643Z,10.00
2023-01-04T23:51:42.720Z,9.90
2023-01-04T23:54:11.254Z,10.00
2023-01-04T23:56:40.033Z,10.00
2023-01-04T23:59:09.061Z,10.00
